Jump to content

beachcp31

Admin
  • Posts

    2,269
  • Joined

  • Last visited

Everything posted by beachcp31

  1. Ça y est, 38 C à Francazal à 14h30... Le point de rosée se tient entre 14 et 17 C ce qui est confortable (humidex de 43 C). LFBF 221400Z AUTO VRB04KT 9999NDV // NSC 37/17 Q1014= LFBF 221430Z AUTO 12005KT 040V210 9999NDV // NSC 38/17 Q1013= LFBO 221400Z 11005KT 040V150 CAVOK 37/14 Q1014 NOSIG= LFBO 221430Z 09005KT 020V150 CAVOK 37/14 Q1013 NOSIG= Bonne fin d'après-midi, à passer près et dans la piscine! Avec une bonne bouteille d'eau et de la crème solaire évidemment.
  2. C'est effectivement bien chaud, avec un Tx de 36.8 C hier à Blagnac. Déjà 35 C à 13h30 à Francazal, 34 C à Blagnac. L'humidité est en basse, tout comme hier! 2 C de plus qu'hier à la même heure. LFBF 221100Z AUTO VRB03KT 9999NDV // NSC 34/18 Q1017= LFBF 221130Z AUTO VRB04KT 9999NDV // NSC 35/17 Q1016= LFBO 221100Z 05004KT 010V140 CAVOK 32/15 Q1017 NOSIG= LFBO 221130Z 08006KT 010V150 CAVOK 34/14 Q1016 NOSIG= Christian
  3. Bonjour à tous! Je viens de constater que le forum a dépassé les 100 000 messages depuis un moment... et nous avons 1255 membres : plusieurs ne font que consulter, mais en étant membre cela permet un suivi des messages lus. Mais ce n'est pas la quantité de messages qui importe seule, il y a aussi la qualité qui va de pair! Christian ============ Nos membres ont écrit un total de 112074 messages Nous avons 1255 membres inscrits ============
  4. Bon orage sur Laval Ste-Rose, plusieurs impacts très rapprochés. Pluie modérée. Ça fait presque environ 1h que nous avons du tonnerre audible.
  5. Merci de revenir au sujet. Tout message non-conforme aux règles du forum sera effacé sans préavis et sans MP.
  6. Merci de revenir au sujet SVP Merci de garder vos interventions privée sur MP.
  7. Bonjour à tous, Il y a eu un petit changement dans les critères de temps violents afin d'uniformiser à travers le pays : Orage violent : la pluie torrentielle sous orage était de 25 mm en une heure ou 40 mm en 3 heures, elle est maintenant vérifiée à 50 mm en une heure. Pluie abondante synoptique : reste à 50 mm en 24 heures mais s'ajoute 75 mm en 48 heures. Vents violents : reste à 90 km/h (rafales) mais s'ajoute 70 km/h du vent soutenu. Christian
  8. Belle capture Jean-Louis! On voit bien la partie rotative plus large au-dessus du tuba. Pour ma part je suis sur Paris pour quelques jours, grand beau temps hier et aujourd'hui! Sinon, pour ce retour d'est mi-juin, quelle est la fréquence de retour de ce type d'événement?
  9. Pas du tout, c'est bien le profil vertical de température de l'atmosphère qui est en cause, pas le courant jet.
  10. Effectivement c'est relié à des mise à jour d'équipement à l'UQAM, ce qui cause des problèmes DNS actuellement. Christian
  11. Les obs sont ici: CYOW 221800Z 10004KT 15SM SCT077 BKN120 BKN240 27/13 A3010 RMK ACC3AC2CI1 SLP194= CYOW 221900Z 29004KT 15SM SCT077 BKN240 27/14 A3008 RMK ACC3CI1 SLP187= CYOW 221916Z 15017G27KT 15SM -TSRA BKN060CB OVC240 22/ RMK CB6CI1= CYOW 221942Z 12007KT 15SM FEW060CB BKN150 BKN240 24/ RETS RMK CB2AC3CI1 CB EAST= CYOW 222000Z 11006KT 15SM FEW080 BKN150 BKN240 25/17 A3008 RETS RMK ACC1AC4CI1 CB DIST EAST SLP187= On voit qu'il y a eu un orage de rapporté à 19:16 UTC, des cumulonimbus (CB) 2/8 à 19:42 UTC, et à 20h UTC des CB vers l'est à bonne distance. On remarquera aussi des ACC presque tout le temps! ET le radar date d'hier.... C'est ici pour l'image satellite visible: http://meteocentre.com/lastimg.php?lang=fr...20GOES-12%20VIS
  12. Tous les modèles semblent s'accorder, nous aurons enfin droit à du temps plus chaud et plus sec, grâce au positionnement de l'anticyclone plus près de nous! Le diagramme GFS est éloquent (et est supporté par les ensembles) Christian
  13. Je tiens également à remercier chaleureusement Steeve pour cette organisation: un succès pour une première en plus! J'aurais bien aimé y participer toute la journée Ça faisait curieux un peu de faire une présentation et de retourner illico à mes activités ici: c'est passé bien rapidement Et merci à Réjean pour l'organisation, entre autre les aspects techniques de mon intervention en direct, une première pour moi! Ce type de rencontre est important et cela permet de regrouper autant les professionnels que les amateurs. C'est vraiment super! Ça rapproche toute la communauté météo du Québec: on a tout à gagner. Un grand merci à tous les intervenants, les participants et les commanditaires. Vivement l'édition 2011! Steeve tu as maintenant déjà la pression! Christian
  14. Il y a actuellement de la neige modérée rapportée à Carcassonne! LFMK 040800Z 28023G36KT 3000 RA BKN011 OVC017 04/03 Q1006 NOSIG= LFMK 040830Z 27020G32KT 240V300 4000 RA BKN011 OVC017 04/03 Q1007 NOSIG= LFMK 040830Z 27020G32KT 240V300 4000 RA BKN011 OVC017 04/03 Q1007 NOSIG = LFMK 040900Z 26015G26KT 3000 RASN BKN010 OVC017 02/01 Q1007 NOSIG= LFMK 040930Z 27016KT 240V300 3500 SNRA BKN010 OVC017 02/01 Q1007 NOSIG= LFMK 040930Z 27016KT 240V300 3500 SNRA BKN010 OVC017 02/01 Q1007 NOSIG = LFMK 041000Z 28014KT 3000 SN BKN007 OVC014 01/00 Q1008 NOSIG= Il ne fait que 1 C, et ici sur Toulouse c'est pluie modérée et ... 4.9 C.
  15. Ce sujet a déjà été débattu maintes fois. Veuillez relire les Règles du forum, il y en a quelques-unes qui s'y rapporte (de même dans la section de courtoisie). Comme à l'habitude, chacun a ses tords...
  16. Des éruptions et des tremblements de terre, il y en a toujours eu et ça continue. 2012 ça n'a rien de scientifique.... vraiment rien. Merci de ne pas repartir de discussion sur ce sujet.
  17. J'ai étudié à l'UQAM et j'ai fait ce programme, mais il y a un bon moment. Je sais que certains qui l'ont fait il y a moins longtemps sont sur le forum. N'hésite pas à me contacter par MP en tout cas! Christian
  18. Jean-Marc: les nouvelles fonctionnalités qui soient visibles sont les boutons Citer qui permettent d'activer la citation de plusieurs messages à la fois, et le bouton réponse rapide (ou flash) qui permet de répondre directement dans la page où se trouve la suite des messages. Il est aussi possible de voir les sujets sous forme de "threads" au lieu de l'affichage actuel. Je viens de rajouter plusieurs émoticônes, dont plusieurs supplémentaires accessibles en cliquant sur afficher tous sous ces derniers.... J'espère que vous allez les aimer, car j'ai dû choisir parce qu'il y en avait des centaines...!! Christian
  19. Oui, je suis en train de travailler pour les remettre. Merci d'avance pour les icônes! Jean-Marc: je te répond dès que j'ai un moment. Christian
  20. Bonjour à tous, J'ai rajouté quelques nouvelles fonctionnalités au forum. Si vous avez des commentaires n'hésitez pas! Je devrais bientôt rajouter des smileys en plus... Christian
  21. Merci pour cette belle analyse Jean-Louis. En effet, ça soufflait beaucoup jusqu'en milieu d'après-midi!!
  22. La carte de risques de crue d'Hydrométéo a été montrée sur le site web des nouvelles de Radio-Canada! http://www.radio-canada.ca/regions/Montrea...es-alerte.shtml Christian
  23. 23 mars, journée internationale de la météo http://www.journee-mondiale.com/121/23_mars-meteorologie.htm 40 années de météorologie au Québec L’UQAM est la seule institution universitaire en Amérique à offrir une formation en français à tous les cycles en sciences de l’atmosphère, incluant la prévision météorologique et la physique du climat. Et ce n’est pas d’hier que cette formation existe. Suite à l’adoption de la Loi sur les langues officielles en 1969, le Gouvernement du Canada entreprit de corriger les iniquités dans le nombre des employés de la fonction publique de langue anglaise et française. À l’époque la presque totalité des employés du Service météorologique canadien étaient anglophones, et la langue de travail était généralement l’anglais, même dans les bureaux du Québec. En 1972, le gouvernement conclut un accord avec l’UQAM pour la mise sur pied du premier cours en français de formation de météorologues prévisionnistes. Ce fut le début de la météorologie à l’UQAM et de la formation en sciences de l’atmosphère en langue française au pays. Depuis ce temps, plusieurs météorologues ont été formés en français par le biais des programmes de l’UQAM, et ce aux trois cycles universitaires. Le groupe de sciences de l’atmosphère de l’UQAM a pris un tournant décisif à la fin des années 80, avec le recrutement de plusieurs nouveaux professeurs spécialisés en simulation numérique appliquée à la prévision météorologique, à l’assimilation des données atmosphériques et au climat. En particulier la modélisation du climat à l’échelle régionale, à haute définition, est devenue un axe majeur de recherche au cours des deux dernières décennies. L’octroi d’une Chaire de recherche du Canada sur le thème de la modélisation régionale du climat consacre ce domaine comme un axe prioritaire à l’UQAM. Récemment un nouveau poste de professeur a été ouvert sur la thématique du calcul de haute performance appliqué à la météorologie et à la modélisation climatique. Le Centre ESCER (Étude et Simulation du Climat à l'Échelle Régionale) de l'UQAM regroupe aujourd’hui l’ensemble de l’expertise universitaire canadienne dans le domaine de la modélisation régionale du climat, et le groupe s’est taillé une réputation et une visibilité à l’échelle internationale pour l’originalité de ses travaux de recherche et pour les efforts consentis à la formation de jeunes chercheurs dans ce domaine novateur. Le refus du gouvernement fédéral de poursuivre le financement du seul organisme à soutenir la recherche universitaires en sciences du climat et de l'atmosphère, la FCSCA (http://www.cfcas.org/), sonne le glas des groupes de recherche oeuvrant dans ce domaine au Canada. Il est paradoxal que presque 40 ans après ses débuts, la formation et la recherche universitaire en météorologie au Québec soit menacée de disparition. René Laprise Professeur, Dép. Sciences de la Terre et de l'Atmosphère, UQAM Directeur, Centre ESCER
  24. Merci beaucoup pour cette superbe description de notre hiver froid! Il semble que le NAO- persistant ait été causé par une configuration spéciale de El Nino qui aurait été favorable aux téléconnections. Cela avait été vu par les modèles dès le début de l'automne, cette possibilité de téléconnection forte entre les deux modes oscillatoires. Christian
×
×
  • Create New...